sensor_id;sensor_type;location;lat;lon;timestamp;temperature;humidity
69436;SHT31;56625;54.322;18.582;2023-10-19T00:01:16;7.45;84.48
69436;SHT31;56625;54.322;18.582;2023-10-19T00:03:45;7.46;84.40
69436;SHT31;56625;54.322;18.582;2023-10-19T00:06:14;7.46;84.28
69436;SHT31;56625;54.322;18.582;2023-10-19T00:08:41;7.45;84.22
69436;SHT31;56625;54.322;18.582;2023-10-19T00:11:10;7.45;84.28
69436;SHT31;56625;54.322;18.582;2023-10-19T00:13:49;7.44;84.33
69436;SHT31;56625;54.322;18.582;2023-10-19T00:16:25;7.42;84.40
69436;SHT31;56625;54.322;18.582;2023-10-19T00:18:57;7.41;84.47
69436;SHT31;56625;54.322;18.582;2023-10-19T00:21:27;7.39;84.51
69436;SHT31;56625;54.322;18.582;2023-10-19T00:23:56;7.37;84.61
69436;SHT31;56625;54.322;18.582;2023-10-19T00:26:29;7.39;84.70
69436;SHT31;56625;54.322;18.582;2023-10-19T00:28:57;7.41;84.72
69436;SHT31;56625;54.322;18.582;2023-10-19T00:31:26;7.45;84.76
69436;SHT31;56625;54.322;18.582;2023-10-19T00:33:55;7.46;84.70
69436;SHT31;56625;54.322;18.582;2023-10-19T00:36:23;7.50;84.70
69436;SHT31;56625;54.322;18.582;2023-10-19T00:38:53;7.54;84.70
69436;SHT31;56625;54.322;18.582;2023-10-19T00:41:23;7.57;84.63
69436;SHT31;56625;54.322;18.582;2023-10-19T00:44:00;7.61;84.57
69436;SHT31;56625;54.322;18.582;2023-10-19T00:46:35;7.65;84.48
69436;SHT31;56625;54.322;18.582;2023-10-19T00:49:11;7.70;84.49
69436;SHT31;56625;54.322;18.582;2023-10-19T00:51:51;7.76;84.34
69436;SHT31;56625;54.322;18.582;2023-10-19T00:54:33;7.80;83.99
69436;SHT31;56625;54.322;18.582;2023-10-19T00:57:04;7.84;83.59
69436;SHT31;56625;54.322;18.582;2023-10-19T00:59:40;7.90;83.15
69436;SHT31;56625;54.322;18.582;2023-10-19T01:02:22;7.93;82.78
69436;SHT31;56625;54.322;18.582;2023-10-19T01:04:53;7.95;82.61
69436;SHT31;56625;54.322;18.582;2023-10-19T01:07:33;7.95;82.36
69436;SHT31;56625;54.322;18.582;2023-10-19T01:10:06;7.97;82.10
69436;SHT31;56625;54.322;18.582;2023-10-19T01:12:36;7.95;81.99
69436;SHT31;56625;54.322;18.582;2023-10-19T01:15:14;7.93;82.03
69436;SHT31;56625;54.322;18.582;2023-10-19T01:17:46;7.94;82.05
69436;SHT31;56625;54.322;18.582;2023-10-19T01:20:25;7.96;82.00
69436;SHT31;56625;54.322;18.582;2023-10-19T01:23:08;7.97;81.93
69436;SHT31;56625;54.322;18.582;2023-10-19T01:25:43;7.97;81.82
69436;SHT31;56625;54.322;18.582;2023-10-19T01:31:12;7.97;81.39
69436;SHT31;56625;54.322;18.582;2023-10-19T01:33:59;8.00;81.33
69436;SHT31;56625;54.322;18.582;2023-10-19T01:36:37;8.01;81.34
69436;SHT31;56625;54.322;18.582;2023-10-19T01:39:10;8.05;81.22
69436;SHT31;56625;54.322;18.582;2023-10-19T01:41:38;8.09;81.10
69436;SHT31;56625;54.322;18.582;2023-10-19T01:44:09;8.09;81.00
69436;SHT31;56625;54.322;18.582;2023-10-19T01:46:42;8.13;80.84
69436;SHT31;56625;54.322;18.582;2023-10-19T01:49:14;8.19;80.47
69436;SHT31;56625;54.322;18.582;2023-10-19T01:51:42;8.26;80.50
69436;SHT31;56625;54.322;18.582;2023-10-19T01:54:11;8.29;80.57
69436;SHT31;56625;54.322;18.582;2023-10-19T01:56:42;8.33;80.71
69436;SHT31;56625;54.322;18.582;2023-10-19T01:59:11;8.38;80.78
69436;SHT31;56625;54.322;18.582;2023-10-19T02:01:39;8.43;80.88
69436;SHT31;56625;54.322;18.582;2023-10-19T02:04:11;8.47;80.99
69436;SHT31;56625;54.322;18.582;2023-10-19T02:06:41;8.49;80.99
69436;SHT31;56625;54.322;18.582;2023-10-19T02:09:12;8.52;81.04
69436;SHT31;56625;54.322;18.582;2023-10-19T02:11:46;8.53;81.29
69436;SHT31;56625;54.322;18.582;2023-10-19T02:14:25;8.54;81.57
69436;SHT31;56625;54.322;18.582;2023-10-19T02:17:00;8.55;81.66
69436;SHT31;56625;54.322;18.582;2023-10-19T02:19:31;8.52;81.50
69436;SHT31;56625;54.322;18.582;2023-10-19T02:22:01;8.50;81.62
69436;SHT31;56625;54.322;18.582;2023-10-19T02:24:39;8.49;81.73
69436;SHT31;56625;54.322;18.582;2023-10-19T02:27:07;8.49;81.71
69436;SHT31;56625;54.322;18.582;2023-10-19T02:29:46;8.49;81.82
69436;SHT31;56625;54.322;18.582;2023-10-19T02:32:14;8.49;81.94
69436;SHT31;56625;54.322;18.582;2023-10-19T02:34:45;8.45;81.87
69436;SHT31;56625;54.322;18.582;2023-10-19T02:37:14;8.45;82.03
69436;SHT31;56625;54.322;18.582;2023-10-19T02:39:42;8.46;82.27
69436;SHT31;56625;54.322;18.582;2023-10-19T02:42:11;8.47;82.32
69436;SHT31;56625;54.322;18.582;2023-10-19T02:44:39;8.48;82.40
69436;SHT31;56625;54.322;18.582;2023-10-19T02:47:07;8.49;82.48
69436;SHT31;56625;54.322;18.582;2023-10-19T02:49:37;8.48;82.54
69436;SHT31;56625;54.322;18.582;2023-10-19T02:52:11;8.50;82.63
69436;SHT31;56625;54.322;18.582;2023-10-19T02:54:41;8.49;82.64
69436;SHT31;56625;54.322;18.582;2023-10-19T02:57:09;8.49;82.67
69436;SHT31;56625;54.322;18.582;2023-10-19T02:59:40;8.47;82.60
69436;SHT31;56625;54.322;18.582;2023-10-19T03:02:08;8.47;82.60
69436;SHT31;56625;54.322;18.582;2023-10-19T03:04:39;8.44;82.55
69436;SHT31;56625;54.322;18.582;2023-10-19T03:07:09;8.39;82.48
69436;SHT31;56625;54.322;18.582;2023-10-19T03:09:40;8.37;82.42
69436;SHT31;56625;54.322;18.582;2023-10-19T03:12:21;8.30;82.38
69436;SHT31;56625;54.322;18.582;2023-10-19T03:14:54;8.24;82.48
69436;SHT31;56625;54.322;18.582;2023-10-19T03:17:22;8.15;82.64
69436;SHT31;56625;54.322;18.582;2023-10-19T03:19:52;8.07;82.91
69436;SHT31;56625;54.322;18.582;2023-10-19T03:22:20;7.99;83.16
69436;SHT31;56625;54.322;18.582;2023-10-19T03:24:48;7.92;83.51
69436;SHT31;56625;54.322;18.582;2023-10-19T03:27:26;7.84;83.98
69436;SHT31;56625;54.322;18.582;2023-10-19T03:29:54;7.80;84.13
69436;SHT31;56625;54.322;18.582;2023-10-19T03:32:23;7.80;84.32
69436;SHT31;56625;54.322;18.582;2023-10-19T03:35:03;7.83;84.42
69436;SHT31;56625;54.322;18.582;2023-10-19T03:37:32;7.85;84.41
69436;SHT31;56625;54.322;18.582;2023-10-19T03:40:04;7.86;84.40
69436;SHT31;56625;54.322;18.582;2023-10-19T03:42:42;7.87;84.40
69436;SHT31;56625;54.322;18.582;2023-10-19T03:45:14;7.88;84.40
69436;SHT31;56625;54.322;18.582;2023-10-19T03:47:42;7.86;84.40
69436;SHT31;56625;54.322;18.582;2023-10-19T03:50:17;7.87;84.51
69436;SHT31;56625;54.322;18.582;2023-10-19T03:52:48;7.87;84.56
69436;SHT31;56625;54.322;18.582;2023-10-19T03:55:16;7.88;84.58
69436;SHT31;56625;54.322;18.582;2023-10-19T03:57:51;7.89;84.59
69436;SHT31;56625;54.322;18.582;2023-10-19T04:00:22;7.89;84.51
69436;SHT31;56625;54.322;18.582;2023-10-19T04:02:55;7.90;84.54
69436;SHT31;56625;54.322;18.582;2023-10-19T04:05:26;7.89;84.53
69436;SHT31;56625;54.322;18.582;2023-10-19T04:07:56;7.91;84.60
69436;SHT31;56625;54.322;18.582;2023-10-19T04:10:25;7.94;84.54
69436;SHT31;56625;54.322;18.582;2023-10-19T04:13:02;7.93;84.41
69436;SHT31;56625;54.322;18.582;2023-10-19T04:15:31;7.90;84.42
69436;SHT31;56625;54.322;18.582;2023-10-19T04:18:02;7.88;84.49
69436;SHT31;56625;54.322;18.582;2023-10-19T04:20:38;7.87;84.59
69436;SHT31;56625;54.322;18.582;2023-10-19T04:23:15;7.88;84.59
69436;SHT31;56625;54.322;18.582;2023-10-19T04:25:44;7.85;84.53
69436;SHT31;56625;54.322;18.582;2023-10-19T04:28:15;7.84;84.51
69436;SHT31;56625;54.322;18.582;2023-10-19T04:30:43;7.83;84.52
69436;SHT31;56625;54.322;18.582;2023-10-19T04:33:11;7.81;84.57
69436;SHT31;56625;54.322;18.582;2023-10-19T04:35:39;7.79;84.56
69436;SHT31;56625;54.322;18.582;2023-10-19T04:38:09;7.79;84.64
69436;SHT31;56625;54.322;18.582;2023-10-19T04:40:37;7.77;84.66
69436;SHT31;56625;54.322;18.582;2023-10-19T04:43:05;7.81;84.77
69436;SHT31;56625;54.322;18.582;2023-10-19T04:45:33;7.82;84.75
69436;SHT31;56625;54.322;18.582;2023-10-19T04:48:01;7.78;84.53
69436;SHT31;56625;54.322;18.582;2023-10-19T04:50:32;7.74;84.53
69436;SHT31;56625;54.322;18.582;2023-10-19T04:53:00;7.72;84.60
69436;SHT31;56625;54.322;18.582;2023-10-19T04:55:28;7.69;84.66
69436;SHT31;56625;54.322;18.582;2023-10-19T04:57:57;7.67;84.73
69436;SHT31;56625;54.322;18.582;2023-10-19T05:00:25;7.67;84.80
69436;SHT31;56625;54.322;18.582;2023-10-19T05:02:55;7.67;84.81
69436;SHT31;56625;54.322;18.582;2023-10-19T05:05:24;7.66;84.80
69436;SHT31;56625;54.322;18.582;2023-10-19T05:07:52;7.66;84.80
69436;SHT31;56625;54.322;18.582;2023-10-19T05:10:19;7.64;84.80
69436;SHT31;56625;54.322;18.582;2023-10-19T05:12:47;7.63;84.82
69436;SHT31;56625;54.322;18.582;2023-10-19T05:15:15;7.61;84.85
69436;SHT31;56625;54.322;18.582;2023-10-19T05:17:43;7.60;84.97
69436;SHT31;56625;54.322;18.582;2023-10-19T05:20:13;7.54;85.27
69436;SHT31;56625;54.322;18.582;2023-10-19T05:22:41;7.50;85.21
69436;SHT31;56625;54.322;18.582;2023-10-19T05:25:08;7.45;85.38
69436;SHT31;56625;54.322;18.582;2023-10-19T05:27:37;7.44;85.53
69436;SHT31;56625;54.322;18.582;2023-10-19T05:30:06;7.43;85.65
69436;SHT31;56625;54.322;18.582;2023-10-19T05:32:38;7.42;85.89
69436;SHT31;56625;54.322;18.582;2023-10-19T05:35:06;7.41;86.10
69436;SHT31;56625;54.322;18.582;2023-10-19T05:37:34;7.41;86.23
69436;SHT31;56625;54.322;18.582;2023-10-19T05:40:02;7.42;86.50
69436;SHT31;56625;54.322;18.582;2023-10-19T05:42:32;7.43;86.81
69436;SHT31;56625;54.322;18.582;2023-10-19T05:45:02;7.71;88.91
69436;SHT31;56625;54.322;18.582;2023-10-19T05:47:33;8.25;89.89
69436;SHT31;56625;54.322;18.582;2023-10-19T05:50:01;8.29;86.97
69436;SHT31;56625;54.322;18.582;2023-10-19T05:52:29;8.32;86.51
69436;SHT31;56625;54.322;18.582;2023-10-19T05:54:57;8.39;85.54
69436;SHT31;56625;54.322;18.582;2023-10-19T05:57:25;8.26;84.64
69436;SHT31;56625;54.322;18.582;2023-10-19T05:59:53;8.11;84.44
69436;SHT31;56625;54.322;18.582;2023-10-19T06:02:20;8.00;84.63
69436;SHT31;56625;54.322;18.582;2023-10-19T06:04:59;7.92;84.72
69436;SHT31;56625;54.322;18.582;2023-10-19T06:07:27;7.84;84.76
69436;SHT31;56625;54.322;18.582;2023-10-19T06:09:55;7.78;84.88
69436;SHT31;56625;54.322;18.582;2023-10-19T06:12:23;7.71;85.01
69436;SHT31;56625;54.322;18.582;2023-10-19T06:14:51;7.67;85.11
69436;SHT31;56625;54.322;18.582;2023-10-19T06:17:19;7.64;85.11
69436;SHT31;56625;54.322;18.582;2023-10-19T06:19:47;7.64;85.28
69436;SHT31;56625;54.322;18.582;2023-10-19T06:22:15;7.62;85.34
69436;SHT31;56625;54.322;18.582;2023-10-19T06:24:44;7.57;85.11
69436;SHT31;56625;54.322;18.582;2023-10-19T06:27:12;7.54;85.09
69436;SHT31;56625;54.322;18.582;2023-10-19T06:29:40;7.51;85.13
69436;SHT31;56625;54.322;18.582;2023-10-19T06:32:08;7.47;85.03
69436;SHT31;56625;54.322;18.582;2023-10-19T06:34:36;7.44;84.96
69436;SHT31;56625;54.322;18.582;2023-10-19T06:37:04;7.42;85.01
69436;SHT31;56625;54.322;18.582;2023-10-19T06:39:35;7.39;84.96
69436;SHT31;56625;54.322;18.582;2023-10-19T06:42:08;7.36;84.90
69436;SHT31;56625;54.322;18.582;2023-10-19T06:44:41;7.35;84.92
69436;SHT31;56625;54.322;18.582;2023-10-19T06:47:12;7.31;84.71
69436;SHT31;56625;54.322;18.582;2023-10-19T06:49:41;7.27;84.54
69436;SHT31;56625;54.322;18.582;2023-10-19T06:52:09;7.25;84.60
69436;SHT31;56625;54.322;18.582;2023-10-19T06:54:39;7.22;84.60
69436;SHT31;56625;54.322;18.582;2023-10-19T06:57:07;7.22;84.61
69436;SHT31;56625;54.322;18.582;2023-10-19T06:59:36;7.21;84.53
69436;SHT31;56625;54.322;18.582;2023-10-19T07:02:04;7.24;84.42
69436;SHT31;56625;54.322;18.582;2023-10-19T07:04:35;7.24;84.22
69436;SHT31;56625;54.322;18.582;2023-10-19T07:07:04;7.25;84.11
69436;SHT31;56625;54.322;18.582;2023-10-19T07:09:31;7.26;84.08
69436;SHT31;56625;54.322;18.582;2023-10-19T07:12:02;7.28;84.09
69436;SHT31;56625;54.322;18.582;2023-10-19T07:14:32;7.28;83.79
69436;SHT31;56625;54.322;18.582;2023-10-19T07:17:00;7.27;83.70
69436;SHT31;56625;54.322;18.582;2023-10-19T07:19:28;7.27;83.67
69436;SHT31;56625;54.322;18.582;2023-10-19T07:21:56;7.29;83.70
69436;SHT31;56625;54.322;18.582;2023-10-19T07:24:31;7.31;83.59
69436;SHT31;56625;54.322;18.582;2023-10-19T07:27:03;7.31;83.39
69436;SHT31;56625;54.322;18.582;2023-10-19T07:29:49;7.34;83.18
69436;SHT31;56625;54.322;18.582;2023-10-19T07:32:17;7.36;83.17
69436;SHT31;56625;54.322;18.582;2023-10-19T07:34:45;7.37;82.85
69436;SHT31;56625;54.322;18.582;2023-10-19T07:37:14;7.38;82.74
69436;SHT31;56625;54.322;18.582;2023-10-19T07:39:46;7.40;82.53
69436;SHT31;56625;54.322;18.582;2023-10-19T07:42:15;7.44;82.31
69436;SHT31;56625;54.322;18.582;2023-10-19T07:44:43;7.47;82.19
69436;SHT31;56625;54.322;18.582;2023-10-19T07:47:11;7.52;82.22
69436;SHT31;56625;54.322;18.582;2023-10-19T07:49:40;7.55;82.00
69436;SHT31;56625;54.322;18.582;2023-10-19T07:52:08;7.56;81.70
69436;SHT31;56625;54.322;18.582;2023-10-19T07:54:38;7.59;81.36
69436;SHT31;56625;54.322;18.582;2023-10-19T07:57:06;7.65;81.41
69436;SHT31;56625;54.322;18.582;2023-10-19T07:59:34;7.70;81.22
69436;SHT31;56625;54.322;18.582;2023-10-19T08:02:02;7.74;80.59
69436;SHT31;56625;54.322;18.582;2023-10-19T08:04:31;7.78;80.44
69436;SHT31;56625;54.322;18.582;2023-10-19T08:06:59;7.79;79.86
69436;SHT31;56625;54.322;18.582;2023-10-19T08:09:27;7.80;79.51
69436;SHT31;56625;54.322;18.582;2023-10-19T08:11:59;7.80;79.77
69436;SHT31;56625;54.322;18.582;2023-10-19T08:14:29;7.85;79.69
69436;SHT31;56625;54.322;18.582;2023-10-19T08:16:58;7.88;79.78
69436;SHT31;56625;54.322;18.582;2023-10-19T08:19:29;7.93;79.33
69436;SHT31;56625;54.322;18.582;2023-10-19T08:22:00;7.93;79.02
69436;SHT31;56625;54.322;18.582;2023-10-19T08:24:28;7.94;78.75
69436;SHT31;56625;54.322;18.582;2023-10-19T08:26:58;7.95;78.70
69436;SHT31;56625;54.322;18.582;2023-10-19T08:29:27;7.97;78.56
69436;SHT31;56625;54.322;18.582;2023-10-19T08:31:56;7.95;78.16
69436;SHT31;56625;54.322;18.582;2023-10-19T08:34:24;7.94;78.43
69436;SHT31;56625;54.322;18.582;2023-10-19T08:36:53;7.94;78.33
69436;SHT31;56625;54.322;18.582;2023-10-19T08:39:21;7.92;78.34
69436;SHT31;56625;54.322;18.582;2023-10-19T08:44:39;7.92;78.25
69436;SHT31;56625;54.322;18.582;2023-10-19T08:47:09;7.93;78.26
69436;SHT31;56625;54.322;18.582;2023-10-19T08:49:37;7.97;78.16
69436;SHT31;56625;54.322;18.582;2023-10-19T08:52:05;8.00;78.11
69436;SHT31;56625;54.322;18.582;2023-10-19T08:54:34;8.02;78.18
69436;SHT31;56625;54.322;18.582;2023-10-19T08:57:02;8.05;78.10
69436;SHT31;56625;54.322;18.582;2023-10-19T08:59:31;8.10;77.89
69436;SHT31;56625;54.322;18.582;2023-10-19T09:02:02;8.16;77.51
69436;SHT31;56625;54.322;18.582;2023-10-19T09:04:31;8.22;77.31
69436;SHT31;56625;54.322;18.582;2023-10-19T09:07:00;8.26;77.29
69436;SHT31;56625;54.322;18.582;2023-10-19T09:09:28;8.29;77.09
69436;SHT31;56625;54.322;18.582;2023-10-19T09:12:00;8.34;77.30
69436;SHT31;56625;54.322;18.582;2023-10-19T09:14:31;8.39;77.49
69436;SHT31;56625;54.322;18.582;2023-10-19T09:17:08;8.46;77.45
69436;SHT31;56625;54.322;18.582;2023-10-19T09:19:43;8.50;77.28
69436;SHT31;56625;54.322;18.582;2023-10-19T09:22:15;8.51;76.71
69436;SHT31;56625;54.322;18.582;2023-10-19T09:24:46;8.49;76.55
69436;SHT31;56625;54.322;18.582;2023-10-19T09:27:17;8.51;76.78
69436;SHT31;56625;54.322;18.582;2023-10-19T09:29:45;8.53;76.69
69436;SHT31;56625;54.322;18.582;2023-10-19T09:32:18;8.52;76.53
69436;SHT31;56625;54.322;18.582;2023-10-19T09:34:47;8.53;76.42
69436;SHT31;56625;54.322;18.582;2023-10-19T09:37:16;8.55;76.28
69436;SHT31;56625;54.322;18.582;2023-10-19T09:39:45;8.54;75.57
69436;SHT31;56625;54.322;18.582;2023-10-19T09:42:13;8.51;75.38
69436;SHT31;56625;54.322;18.582;2023-10-19T09:44:44;8.51;75.34
69436;SHT31;56625;54.322;18.582;2023-10-19T09:47:20;8.53;75.29
69436;SHT31;56625;54.322;18.582;2023-10-19T09:49:58;8.55;75.15
69436;SHT31;56625;54.322;18.582;2023-10-19T09:52:26;8.57;75.56
69436;SHT31;56625;54.322;18.582;2023-10-19T09:55:00;8.62;75.65
69436;SHT31;56625;54.322;18.582;2023-10-19T09:58:06;8.69;75.84
69436;SHT31;56625;54.322;18.582;2023-10-19T10:00:44;8.73;75.56
69436;SHT31;56625;54.322;18.582;2023-10-19T10:03:56;8.75;74.90
69436;SHT31;56625;54.322;18.582;2023-10-19T10:06:11;8.76;74.62
69436;SHT31;56625;54.322;18.582;2023-10-19T10:08:42;8.74;74.53
69436;SHT31;56625;54.322;18.582;2023-10-19T10:11:13;8.69;74.39
69436;SHT31;56625;54.322;18.582;2023-10-19T10:13:54;8.61;74.56
69436;SHT31;56625;54.322;18.582;2023-10-19T10:16:25;8.55;74.80
69436;SHT31;56625;54.322;18.582;2023-10-19T10:18:58;8.53;75.18
69436;SHT31;56625;54.322;18.582;2023-10-19T10:21:28;8.52;75.01
69436;SHT31;56625;54.322;18.582;2023-10-19T10:23:58;8.52;75.36
69436;SHT31;56625;54.322;18.582;2023-10-19T10:26:31;8.59;75.50
69436;SHT31;56625;54.322;18.582;2023-10-19T10:29:26;8.59;74.55
69436;SHT31;56625;54.322;18.582;2023-10-19T10:31:55;8.54;74.35
69436;SHT31;56625;54.322;18.582;2023-10-19T10:37:10;8.59;74.66
69436;SHT31;56625;54.322;18.582;2023-10-19T10:39:41;8.59;74.27
69436;SHT31;56625;54.322;18.582;2023-10-19T10:42:13;8.59;74.49
69436;SHT31;56625;54.322;18.582;2023-10-19T10:44:46;8.61;74.41
69436;SHT31;56625;54.322;18.582;2023-10-19T10:47:19;8.62;74.34
69436;SHT31;56625;54.322;18.582;2023-10-19T10:52:27;8.71;74.77
69436;SHT31;56625;54.322;18.582;2023-10-19T10:55:08;8.77;74.67
69436;SHT31;56625;54.322;18.582;2023-10-19T10:57:42;8.85;74.91
69436;SHT31;56625;54.322;18.582;2023-10-19T11:00:13;8.88;74.29
69436;SHT31;56625;54.322;18.582;2023-10-19T11:02:43;8.89;73.98
69436;SHT31;56625;54.322;18.582;2023-10-19T11:05:16;8.85;73.84
69436;SHT31;56625;54.322;18.582;2023-10-19T11:08:10;8.83;73.92
69436;SHT31;56625;54.322;18.582;2023-10-19T11:10:42;8.82;74.05
69436;SHT31;56625;54.322;18.582;2023-10-19T11:13:16;8.84;73.98
69436;SHT31;56625;54.322;18.582;2023-10-19T11:15:53;8.85;73.93
69436;SHT31;56625;54.322;18.582;2023-10-19T11:18:39;8.85;74.12
69436;SHT31;56625;54.322;18.582;2023-10-19T11:21:13;8.89;74.25
69436;SHT31;56625;54.322;18.582;2023-10-19T11:23:46;8.84;74.03
69436;SHT31;56625;54.322;18.582;2023-10-19T11:26:21;8.80;74.42
69436;SHT31;56625;54.322;18.582;2023-10-19T11:28:58;8.77;74.23
69436;SHT31;56625;54.322;18.582;2023-10-19T11:31:33;8.70;74.26
69436;SHT31;56625;54.322;18.582;2023-10-19T11:34:07;8.73;74.67
69436;SHT31;56625;54.322;18.582;2023-10-19T11:36:36;8.74;74.59
69436;SHT31;56625;54.322;18.582;2023-10-19T11:39:04;8.75;74.57
69436;SHT31;56625;54.322;18.582;2023-10-19T11:41:32;8.72;73.99
69436;SHT31;56625;54.322;18.582;2023-10-19T11:44:00;8.72;74.26
69436;SHT31;56625;54.322;18.582;2023-10-19T11:46:29;8.73;74.35
69436;SHT31;56625;54.322;18.582;2023-10-19T11:48:57;8.77;74.51
69436;SHT31;56625;54.322;18.582;2023-10-19T11:51:26;8.77;74.08
69436;SHT31;56625;54.322;18.582;2023-10-19T11:53:54;8.75;73.51
69436;SHT31;56625;54.322;18.582;2023-10-19T11:56:23;8.73;73.43
69436;SHT31;56625;54.322;18.582;2023-10-19T11:58:52;8.72;73.60
69436;SHT31;56625;54.322;18.582;2023-10-19T12:01:20;8.72;73.37
69436;SHT31;56625;54.322;18.582;2023-10-19T12:03:48;8.66;73.13
69436;SHT31;56625;54.322;18.582;2023-10-19T12:06:17;8.58;73.45
69436;SHT31;56625;54.322;18.582;2023-10-19T12:08:51;8.53;73.62
69436;SHT31;56625;54.322;18.582;2023-10-19T12:11:19;8.51;73.73
69436;SHT31;56625;54.322;18.582;2023-10-19T12:13:47;8.50;73.61
69436;SHT31;56625;54.322;18.582;2023-10-19T12:16:15;8.46;73.31
69436;SHT31;56625;54.322;18.582;2023-10-19T12:18:45;8.42;73.10
69436;SHT31;56625;54.322;18.582;2023-10-19T12:21:14;8.36;73.36
69436;SHT31;56625;54.322;18.582;2023-10-19T12:23:42;8.35;73.35
69436;SHT31;56625;54.322;18.582;2023-10-19T12:26:12;8.31;73.46
69436;SHT31;56625;54.322;18.582;2023-10-19T12:28:40;8.30;73.69
69436;SHT31;56625;54.322;18.582;2023-10-19T12:31:13;8.30;73.70
69436;SHT31;56625;54.322;18.582;2023-10-19T12:33:41;8.30;74.03
69436;SHT31;56625;54.322;18.582;2023-10-19T12:36:09;8.30;74.10
69436;SHT31;56625;54.322;18.582;2023-10-19T12:38:55;8.28;74.06
69436;SHT31;56625;54.322;18.582;2023-10-19T12:41:23;8.21;73.64
69436;SHT31;56625;54.322;18.582;2023-10-19T12:43:52;8.13;73.66
69436;SHT31;56625;54.322;18.582;2023-10-19T12:46:25;8.06;73.96
69436;SHT31;56625;54.322;18.582;2023-10-19T12:48:53;8.03;74.23
69436;SHT31;56625;54.322;18.582;2023-10-19T12:51:23;8.01;74.32
69436;SHT31;56625;54.322;18.582;2023-10-19T12:53:52;7.96;74.39
69436;SHT31;56625;54.322;18.582;2023-10-19T12:56:22;7.88;74.28
69436;SHT31;56625;54.322;18.582;2023-10-19T12:58:52;7.82;74.59
69436;SHT31;56625;54.322;18.582;2023-10-19T13:01:22;7.80;74.81
69436;SHT31;56625;54.322;18.582;2023-10-19T13:03:50;7.76;74.90
69436;SHT31;56625;54.322;18.582;2023-10-19T13:06:19;7.72;74.79
69436;SHT31;56625;54.322;18.582;2023-10-19T13:08:47;7.70;75.02
69436;SHT31;56625;54.322;18.582;2023-10-19T13:11:15;7.68;75.16
69436;SHT31;56625;54.322;18.582;2023-10-19T13:13:45;7.67;75.60
69436;SHT31;56625;54.322;18.582;2023-10-19T13:16:15;7.68;75.66
69436;SHT31;56625;54.322;18.582;2023-10-19T13:18:44;7.67;75.22
69436;SHT31;56625;54.322;18.582;2023-10-19T13:21:12;7.67;75.25
69436;SHT31;56625;54.322;18.582;2023-10-19T13:23:45;7.66;74.99
69436;SHT31;56625;54.322;18.582;2023-10-19T13:26:13;7.64;75.17
69436;SHT31;56625;54.322;18.582;2023-10-19T13:28:44;7.62;75.37
69436;SHT31;56625;54.322;18.582;2023-10-19T13:31:13;7.63;75.42
69436;SHT31;56625;54.322;18.582;2023-10-19T13:33:43;7.62;75.23
69436;SHT31;56625;54.322;18.582;2023-10-19T13:36:13;7.60;75.07
69436;SHT31;56625;54.322;18.582;2023-10-19T13:38:41;7.57;75.02
69436;SHT31;56625;54.322;18.582;2023-10-19T13:41:10;7.53;75.10
69436;SHT31;56625;54.322;18.582;2023-10-19T13:43:39;7.48;75.25
69436;SHT31;56625;54.322;18.582;2023-10-19T13:46:10;7.47;75.18
69436;SHT31;56625;54.322;18.582;2023-10-19T13:48:39;7.45;75.09
69436;SHT31;56625;54.322;18.582;2023-10-19T13:51:07;7.41;75.26
69436;SHT31;56625;54.322;18.582;2023-10-19T13:53:42;7.38;75.48
69436;SHT31;56625;54.322;18.582;2023-10-19T13:56:13;7.37;75.50
69436;SHT31;56625;54.322;18.582;2023-10-19T13:58:42;7.36;75.29
69436;SHT31;56625;54.322;18.582;2023-10-19T14:01:11;7.32;74.95
69436;SHT31;56625;54.322;18.582;2023-10-19T14:03:42;7.30;75.01
69436;SHT31;56625;54.322;18.582;2023-10-19T14:06:13;7.30;75.02
69436;SHT31;56625;54.322;18.582;2023-10-19T14:08:43;7.26;74.85
69436;SHT31;56625;54.322;18.582;2023-10-19T14:11:11;7.24;74.80
69436;SHT31;56625;54.322;18.582;2023-10-19T14:13:39;7.20;74.52
69436;SHT31;56625;54.322;18.582;2023-10-19T14:16:11;7.17;74.75
69436;SHT31;56625;54.322;18.582;2023-10-19T14:18:39;7.14;74.80
69436;SHT31;56625;54.322;18.582;2023-10-19T14:21:11;7.12;74.95
69436;SHT31;56625;54.322;18.582;2023-10-19T14:23:43;7.10;75.06
69436;SHT31;56625;54.322;18.582;2023-10-19T14:26:13;7.09;75.16
69436;SHT31;56625;54.322;18.582;2023-10-19T14:28:42;7.06;75.29
69436;SHT31;56625;54.322;18.582;2023-10-19T14:31:10;7.06;75.17
69436;SHT31;56625;54.322;18.582;2023-10-19T14:33:39;7.06;75.13
69436;SHT31;56625;54.322;18.582;2023-10-19T14:36:08;7.05;75.00
69436;SHT31;56625;54.322;18.582;2023-10-19T14:38:36;7.04;75.11
69436;SHT31;56625;54.322;18.582;2023-10-19T14:41:10;7.04;75.28
69436;SHT31;56625;54.322;18.582;2023-10-19T14:43:38;7.05;75.27
69436;SHT31;56625;54.322;18.582;2023-10-19T14:46:06;7.05;75.20
69436;SHT31;56625;54.322;18.582;2023-10-19T14:48:34;7.07;75.26
69436;SHT31;56625;54.322;18.582;2023-10-19T14:51:03;7.07;75.08
69436;SHT31;56625;54.322;18.582;2023-10-19T14:53:33;7.06;74.84
69436;SHT31;56625;54.322;18.582;2023-10-19T14:56:02;7.04;74.85
69436;SHT31;56625;54.322;18.582;2023-10-19T14:58:30;7.02;74.82
69436;SHT31;56625;54.322;18.582;2023-10-19T15:00:59;7.02;74.87
69436;SHT31;56625;54.322;18.582;2023-10-19T15:03:28;7.01;74.82
69436;SHT31;56625;54.322;18.582;2023-10-19T15:05:57;7.00;74.84
69436;SHT31;56625;54.322;18.582;2023-10-19T15:08:27;7.01;74.63
69436;SHT31;56625;54.322;18.582;2023-10-19T15:10:59;6.99;74.55
69436;SHT31;56625;54.322;18.582;2023-10-19T15:13:27;6.99;74.70
69436;SHT31;56625;54.322;18.582;2023-10-19T15:15:56;6.99;74.86
69436;SHT31;56625;54.322;18.582;2023-10-19T15:18:24;6.99;74.70
69436;SHT31;56625;54.322;18.582;2023-10-19T15:20:52;7.00;74.56
69436;SHT31;56625;54.322;18.582;2023-10-19T15:23:20;7.00;74.61
69436;SHT31;56625;54.322;18.582;2023-10-19T15:25:49;7.00;74.64
69436;SHT31;56625;54.322;18.582;2023-10-19T15:28:17;7.00;74.68
69436;SHT31;56625;54.322;18.582;2023-10-19T15:30:45;7.01;74.53
69436;SHT31;56625;54.322;18.582;2023-10-19T15:33:12;7.00;74.51
69436;SHT31;56625;54.322;18.582;2023-10-19T15:35:42;7.00;74.66
69436;SHT31;56625;54.322;18.582;2023-10-19T15:38:10;6.99;74.65
69436;SHT31;56625;54.322;18.582;2023-10-19T15:40:40;7.00;74.85
69436;SHT31;56625;54.322;18.582;2023-10-19T15:43:07;7.00;74.94
69436;SHT31;56625;54.322;18.582;2023-10-19T15:45:39;7.01;74.98
69436;SHT31;56625;54.322;18.582;2023-10-19T15:48:09;7.01;75.12
69436;SHT31;56625;54.322;18.582;2023-10-19T15:50:39;7.02;75.22
69436;SHT31;56625;54.322;18.582;2023-10-19T15:53:10;7.02;75.27
69436;SHT31;56625;54.322;18.582;2023-10-19T15:55:38;7.00;75.28
69436;SHT31;56625;54.322;18.582;2023-10-19T15:58:06;6.99;75.26
69436;SHT31;56625;54.322;18.582;2023-10-19T16:00:36;6.98;75.28
69436;SHT31;56625;54.322;18.582;2023-10-19T16:03:05;6.95;75.30